createdAt,value
2017-08-28T00:01:33.710Z,9.60
2017-08-28T00:04:01.320Z,11.10
2017-08-28T00:06:28.867Z,10.80
2017-08-28T00:08:56.412Z,10.93
2017-08-28T00:11:24.003Z,10.80
2017-08-28T00:13:51.526Z,11.03
2017-08-28T00:16:19.104Z,10.60
2017-08-28T00:18:46.654Z,10.30
2017-08-28T00:21:14.168Z,11.17
2017-08-28T00:23:41.719Z,10.20
2017-08-28T00:26:09.231Z,12.00
2017-08-28T00:28:36.790Z,11.20
2017-08-28T00:31:04.311Z,11.67
2017-08-28T00:33:31.867Z,11.10
2017-08-28T00:35:59.384Z,10.27
2017-08-28T00:38:26.936Z,10.20
2017-08-28T00:40:54.481Z,9.57
2017-08-28T00:43:22.040Z,9.73
2017-08-28T00:45:49.612Z,9.70
2017-08-28T00:48:17.127Z,9.27
2017-08-28T00:50:44.709Z,8.63
2017-08-28T00:53:12.224Z,9.53
2017-08-28T00:55:39.744Z,9.80
2017-08-28T00:58:07.273Z,10.33
2017-08-28T01:00:34.792Z,10.70
2017-08-28T01:03:02.384Z,10.10
2017-08-28T01:05:29.943Z,9.43
2017-08-28T01:07:57.460Z,10.67
2017-08-28T01:10:25.007Z,10.63
2017-08-28T01:12:52.524Z,9.70
2017-08-28T01:15:20.087Z,10.10
2017-08-28T01:17:47.652Z,9.47
2017-08-28T01:20:15.166Z,9.50
2017-08-28T01:22:42.755Z,10.47
2017-08-28T01:25:10.281Z,10.57
2017-08-28T01:27:37.791Z,10.57
2017-08-28T01:30:05.353Z,10.57
2017-08-28T01:32:32.869Z,10.80
2017-08-28T01:35:00.388Z,10.13
2017-08-28T01:37:27.923Z,10.50
2017-08-28T01:39:55.435Z,10.37
2017-08-28T01:42:22.980Z,9.70
2017-08-28T01:44:50.499Z,9.53
2017-08-28T01:47:18.048Z,10.10
2017-08-28T01:49:45.939Z,9.60
2017-08-28T01:52:13.492Z,9.97
2017-08-28T01:54:41.015Z,10.40
2017-08-28T01:57:08.668Z,10.30
2017-08-28T01:59:36.250Z,9.20
2017-08-28T02:02:03.799Z,11.00
2017-08-28T02:04:31.402Z,9.47
2017-08-28T02:06:58.967Z,10.50
2017-08-28T02:09:26.552Z,10.30
2017-08-28T02:11:54.307Z,10.00
2017-08-28T02:14:21.872Z,9.60
2017-08-28T02:16:49.428Z,10.43
2017-08-28T02:19:16.943Z,11.10
2017-08-28T02:21:44.465Z,9.73
2017-08-28T02:24:12.019Z,10.70
2017-08-28T02:26:39.527Z,9.80
2017-08-28T02:29:07.103Z,10.53
2017-08-28T02:31:34.729Z,10.37
2017-08-28T02:34:02.365Z,10.07
2017-08-28T02:36:29.900Z,11.03
2017-08-28T02:38:57.693Z,10.70
2017-08-28T02:41:25.280Z,9.97
2017-08-28T02:43:52.861Z,9.80
2017-08-28T02:46:20.391Z,10.43
2017-08-28T02:48:47.949Z,10.47
2017-08-28T02:51:15.517Z,10.10
2017-08-28T02:53:43.038Z,10.17
2017-08-28T02:56:10.624Z,10.60
2017-08-28T02:58:38.151Z,9.67
2017-08-28T03:01:05.665Z,8.40
2017-08-28T03:03:33.236Z,10.60
2017-08-28T03:06:00.776Z,10.07
2017-08-28T03:08:28.338Z,10.33
2017-08-28T03:10:55.887Z,10.10
2017-08-28T03:13:23.424Z,9.07
2017-08-28T03:15:50.966Z,10.40
2017-08-28T03:18:18.530Z,10.27
2017-08-28T03:20:46.085Z,11.03
2017-08-28T03:23:13.639Z,10.07
2017-08-28T03:25:41.189Z,9.50
2017-08-28T03:28:08.737Z,10.60
2017-08-28T03:30:36.265Z,10.10
2017-08-28T03:33:03.810Z,10.77
2017-08-28T03:35:31.563Z,10.23
2017-08-28T03:37:59.188Z,11.90
2017-08-28T03:40:26.742Z,10.47
2017-08-28T03:42:54.256Z,10.40
2017-08-28T03:45:21.812Z,10.47
2017-08-28T03:47:49.332Z,8.83
2017-08-28T03:50:16.847Z,9.07
2017-08-28T03:52:44.392Z,10.87
2017-08-28T03:55:11.908Z,10.50
2017-08-28T03:57:39.436Z,9.67
2017-08-28T04:00:07.002Z,10.53
2017-08-28T04:02:34.563Z,11.17
2017-08-28T04:05:02.117Z,10.97
2017-08-28T04:07:29.652Z,10.70
2017-08-28T04:09:57.204Z,9.50
2017-08-28T04:12:24.831Z,10.90
2017-08-28T04:14:52.408Z,10.60
2017-08-28T04:17:20.027Z,11.33
2017-08-28T04:19:47.548Z,9.73
2017-08-28T04:22:15.111Z,9.10
2017-08-28T04:24:42.759Z,10.03
2017-08-28T04:27:10.272Z,10.57
2017-08-28T04:29:37.984Z,10.97
2017-08-28T04:32:05.567Z,10.00
2017-08-28T04:34:33.181Z,10.77
2017-08-28T04:37:00.727Z,10.37
2017-08-28T04:39:28.280Z,11.13
2017-08-28T04:41:55.824Z,9.60
2017-08-28T04:44:23.468Z,8.90
2017-08-28T04:46:51.013Z,8.63
2017-08-28T04:49:18.564Z,10.40
2017-08-28T04:51:46.118Z,10.70
2017-08-28T04:54:13.852Z,9.87
2017-08-28T04:56:41.383Z,9.50
2017-08-28T04:59:08.891Z,9.20
2017-08-28T05:01:36.439Z,8.93
2017-08-28T05:04:03.957Z,8.60
2017-08-28T05:06:31.527Z,9.23
2017-08-28T05:08:59.132Z,10.17
2017-08-28T05:11:26.682Z,9.80
2017-08-28T05:13:54.259Z,10.60
2017-08-28T05:16:21.864Z,9.40
2017-08-28T05:18:49.460Z,10.77
2017-08-28T05:21:16.975Z,10.33
2017-08-28T05:23:44.666Z,9.40
2017-08-28T05:26:12.208Z,9.40
2017-08-28T05:28:39.723Z,9.43
2017-08-28T05:31:07.278Z,9.77
2017-08-28T05:33:34.823Z,9.30
2017-08-28T05:36:02.364Z,9.17
2017-08-28T05:38:29.924Z,8.30
2017-08-28T05:40:57.440Z,9.30
2017-08-28T05:43:24.999Z,8.70
2017-08-28T05:45:52.654Z,8.93
2017-08-28T05:48:20.174Z,8.47
2017-08-28T05:50:47.682Z,8.60
2017-08-28T05:53:15.314Z,9.77
2017-08-28T05:55:42.842Z,9.40
2017-08-28T05:58:10.392Z,9.67
2017-08-28T06:00:38.040Z,8.57
2017-08-28T06:03:05.627Z,8.37
2017-08-28T06:05:33.154Z,8.10
2017-08-28T06:08:00.769Z,9.10
2017-08-28T06:10:28.274Z,9.37
2017-08-28T06:12:55.788Z,7.47
2017-08-28T06:15:23.334Z,8.50
2017-08-28T06:17:50.841Z,6.87
2017-08-28T06:20:18.375Z,6.40
2017-08-28T06:22:45.887Z,7.70
2017-08-28T06:25:13.452Z,7.17
2017-08-28T06:27:40.957Z,6.70
2017-08-28T06:30:08.510Z,7.03
2017-08-28T06:32:36.063Z,7.13
2017-08-28T06:35:03.570Z,6.10
2017-08-28T06:37:31.084Z,6.63
2017-08-28T06:39:58.652Z,6.00
2017-08-28T06:42:26.169Z,6.27
2017-08-28T06:44:53.729Z,6.60
2017-08-28T06:47:21.260Z,6.50
2017-08-28T06:49:48.783Z,6.90
2017-08-28T06:52:16.327Z,6.60
2017-08-28T06:54:43.867Z,9.00
2017-08-28T06:57:11.451Z,6.40
2017-08-28T06:59:39.004Z,6.70
2017-08-28T07:02:06.520Z,6.90
2017-08-28T07:04:34.035Z,6.47
2017-08-28T07:07:01.593Z,6.97
2017-08-28T07:09:29.104Z,6.50
2017-08-28T07:11:56.616Z,7.37
2017-08-28T07:14:24.236Z,7.03
2017-08-28T07:16:51.751Z,6.90
2017-08-28T07:19:19.263Z,6.70
2017-08-28T07:21:46.827Z,6.00
2017-08-28T07:24:14.411Z,5.83
2017-08-28T07:26:41.915Z,6.30
2017-08-28T07:29:09.419Z,6.00
2017-08-28T07:31:37.035Z,5.60
2017-08-28T07:34:19.375Z,5.90
2017-08-28T07:36:47.084Z,6.70
2017-08-28T07:39:14.645Z,5.97
2017-08-28T07:41:42.202Z,5.80
2017-08-28T07:44:09.709Z,6.33
2017-08-28T07:46:37.222Z,6.30
2017-08-28T07:49:04.766Z,5.60
2017-08-28T07:51:32.327Z,5.50
2017-08-28T07:53:59.944Z,5.60
2017-08-28T07:56:27.448Z,5.57
2017-08-28T07:58:55.023Z,5.37
2017-08-28T08:01:22.532Z,5.30
2017-08-28T08:03:50.039Z,5.30
2017-08-28T08:06:17.587Z,5.87
2017-08-28T08:08:45.103Z,5.27
2017-08-28T08:11:12.655Z,6.00
2017-08-28T08:13:40.263Z,6.10
2017-08-28T08:16:07.811Z,5.80
2017-08-28T08:18:35.388Z,5.73
2017-08-28T08:21:02.958Z,6.07
2017-08-28T08:23:30.467Z,4.87
2017-08-28T08:25:58.014Z,5.43
2017-08-28T08:28:25.522Z,6.07
2017-08-28T08:30:53.069Z,5.27
2017-08-28T08:33:26.315Z,5.27
2017-08-28T08:35:53.855Z,6.03
2017-08-28T08:38:21.379Z,5.10
2017-08-28T08:40:48.932Z,6.43
2017-08-28T08:43:16.559Z,5.60
2017-08-28T08:45:44.092Z,6.30
2017-08-28T08:48:11.696Z,6.30
2017-08-28T08:50:39.219Z,4.90
2017-08-28T08:53:06.760Z,5.80
2017-08-28T08:55:34.395Z,5.90
2017-08-28T08:58:01.907Z,6.00
2017-08-28T09:00:29.452Z,6.23
2017-08-28T09:02:56.956Z,5.70
2017-08-28T09:05:24.611Z,6.30
2017-08-28T09:07:52.119Z,6.97
2017-08-28T09:10:19.650Z,6.47
2017-08-28T09:12:47.230Z,6.40
2017-08-28T09:15:14.830Z,7.40
2017-08-28T09:17:42.391Z,6.63
2017-08-28T09:20:09.951Z,7.60
2017-08-28T09:22:37.508Z,6.63
2017-08-28T09:25:05.046Z,7.60
2017-08-28T09:27:32.560Z,7.23
2017-08-28T09:30:00.112Z,7.90
2017-08-28T09:32:27.620Z,6.60
2017-08-28T09:34:55.221Z,7.20
2017-08-28T09:37:22.831Z,6.53
2017-08-28T09:39:50.339Z,7.37
2017-08-28T09:42:17.864Z,7.27
2017-08-28T09:44:45.410Z,8.07
2017-08-28T09:47:12.971Z,7.90
2017-08-28T09:49:40.505Z,8.63
2017-08-28T09:52:08.128Z,9.70
2017-08-28T09:54:35.719Z,9.10
2017-08-28T09:57:03.239Z,7.73
2017-08-28T09:59:30.816Z,7.97
2017-08-28T10:01:58.444Z,7.50
2017-08-28T10:04:25.959Z,8.27
2017-08-28T10:06:53.540Z,8.33
2017-08-28T10:09:21.112Z,9.20
2017-08-28T10:11:48.628Z,8.57
2017-08-28T10:14:16.151Z,8.37
2017-08-28T10:16:43.698Z,8.47
2017-08-28T10:19:11.255Z,8.03
2017-08-28T10:21:38.876Z,8.97
2017-08-28T10:24:06.412Z,11.40
2017-08-28T10:26:34.069Z,12.03
2017-08-28T10:29:01.616Z,13.03
2017-08-28T10:31:29.132Z,12.90
2017-08-28T10:33:56.725Z,12.70
2017-08-28T10:36:24.236Z,13.27
2017-08-28T10:38:51.793Z,12.13
2017-08-28T10:41:19.411Z,10.60
2017-08-28T10:43:46.928Z,10.53
2017-08-28T10:46:14.513Z,12.30
2017-08-28T10:48:42.934Z,11.40
2017-08-28T10:51:10.448Z,11.73
2017-08-28T10:53:38.010Z,10.97
2017-08-28T10:56:06.340Z,12.70
2017-08-28T10:58:33.851Z,11.93
2017-08-28T11:01:01.427Z,10.60
2017-08-28T11:03:29.026Z,11.23
2017-08-28T11:05:56.539Z,12.60
2017-08-28T11:08:24.100Z,12.23
2017-08-28T11:10:51.658Z,12.10
2017-08-28T11:13:19.179Z,10.40
2017-08-28T11:15:46.703Z,10.73
2017-08-28T11:18:14.257Z,9.67
2017-08-28T11:20:41.848Z,10.97
2017-08-28T11:23:09.407Z,11.40
2017-08-28T11:25:36.940Z,9.90
2017-08-28T11:28:04.477Z,9.73
2017-08-28T11:30:32.109Z,8.90
2017-08-28T11:32:59.692Z,10.20
2017-08-28T11:35:27.392Z,9.30
2017-08-28T11:37:54.964Z,9.40
2017-08-28T11:40:22.646Z,8.93
2017-08-28T11:42:50.179Z,9.80
2017-08-28T11:45:17.791Z,9.23
2017-08-28T11:47:45.312Z,10.00
2017-08-28T11:50:12.893Z,10.33
2017-08-28T11:52:40.480Z,9.37
2017-08-28T11:55:08.007Z,8.37
2017-08-28T11:57:35.587Z,8.67
2017-08-28T12:00:03.262Z,9.70
2017-08-28T12:02:30.775Z,10.77
2017-08-28T12:04:58.340Z,10.30
2017-08-28T12:07:26.047Z,9.50
2017-08-28T12:09:53.612Z,10.20
2017-08-28T12:12:21.286Z,9.80
2017-08-28T12:14:48.851Z,9.80
2017-08-28T12:17:16.398Z,10.20
2017-08-28T12:19:43.907Z,9.90
2017-08-28T12:22:11.540Z,10.93
2017-08-28T12:24:39.057Z,9.40
2017-08-28T12:27:06.575Z,10.10
2017-08-28T12:29:34.236Z,9.70
2017-08-28T12:32:01.764Z,9.57
2017-08-28T12:34:30.070Z,9.77
2017-08-28T12:36:57.629Z,9.87
2017-08-28T12:39:25.144Z,10.30
2017-08-28T12:41:52.716Z,9.47
2017-08-28T12:44:20.263Z,9.43
2017-08-28T12:46:48.192Z,9.10
2017-08-28T12:49:15.699Z,9.53
2017-08-28T12:51:43.215Z,9.20
2017-08-28T12:54:10.779Z,10.23
2017-08-28T12:56:38.299Z,9.30
2017-08-28T12:59:05.871Z,9.60
2017-08-28T13:01:33.398Z,9.40
2017-08-28T13:04:01.034Z,9.87
2017-08-28T13:06:28.656Z,9.17
2017-08-28T13:08:56.268Z,9.80
2017-08-28T13:11:23.965Z,9.90
2017-08-28T13:13:51.646Z,8.80
2017-08-28T13:16:19.163Z,9.30
2017-08-28T13:18:46.701Z,8.53
2017-08-28T13:21:14.283Z,8.53
2017-08-28T13:23:41.832Z,9.63
2017-08-28T13:26:09.352Z,9.23
2017-08-28T13:28:36.906Z,10.10
2017-08-28T13:31:04.507Z,9.47
2017-08-28T13:33:32.028Z,8.90
2017-08-28T13:35:59.547Z,8.80
2017-08-28T13:38:27.105Z,9.70
2017-08-28T13:40:55.087Z,9.37
2017-08-28T13:43:22.668Z,9.33
2017-08-28T13:45:50.215Z,10.37
2017-08-28T13:48:17.752Z,9.63
2017-08-28T13:50:45.423Z,8.97
2017-08-28T13:53:12.940Z,9.63
2017-08-28T13:55:40.471Z,9.23
2017-08-28T13:58:08.020Z,10.07
2017-08-28T14:00:35.555Z,10.60
2017-08-28T14:03:03.273Z,10.67
2017-08-28T14:05:30.866Z,9.97
2017-08-28T14:08:03.296Z,9.73
2017-08-28T14:10:30.884Z,10.27
2017-08-28T14:12:58.532Z,9.80
2017-08-28T14:15:26.107Z,11.00
2017-08-28T14:17:53.663Z,10.60
2017-08-28T14:20:21.259Z,10.80
2017-08-28T14:22:48.768Z,9.70
2017-08-28T14:25:16.291Z,11.37
2017-08-28T14:27:43.854Z,10.07
2017-08-28T14:30:11.379Z,11.30
2017-08-28T14:32:39.000Z,10.03
2017-08-28T14:35:06.592Z,10.20
2017-08-28T14:37:34.167Z,11.10
2017-08-28T14:40:01.747Z,11.90
2017-08-28T14:42:29.295Z,11.40
2017-08-28T14:44:56.848Z,10.60
2017-08-28T14:47:24.410Z,12.70
2017-08-28T14:49:51.964Z,12.13
2017-08-28T14:52:19.479Z,11.80
2017-08-28T14:54:47.017Z,12.50
2017-08-28T14:57:14.626Z,10.87
2017-08-28T14:59:42.179Z,10.03
2017-08-28T15:02:09.698Z,11.40
2017-08-28T15:04:37.270Z,10.97
2017-08-28T15:07:04.788Z,11.30
2017-08-28T15:09:32.335Z,10.70
2017-08-28T15:11:59.900Z,12.60
2017-08-28T15:14:27.511Z,11.03
2017-08-28T15:16:55.035Z,11.47
2017-08-28T15:19:22.572Z,12.20
2017-08-28T15:21:50.120Z,12.07
2017-08-28T15:24:17.642Z,11.93
2017-08-28T15:26:45.166Z,11.30
2017-08-28T15:29:12.723Z,11.30
2017-08-28T15:31:40.259Z,11.83
2017-08-28T15:34:07.789Z,12.63
2017-08-28T15:36:35.346Z,12.27
2017-08-28T15:39:02.932Z,11.50
2017-08-28T15:41:30.490Z,11.53
2017-08-28T15:43:58.015Z,11.87
2017-08-28T15:46:25.551Z,13.03
2017-08-28T15:48:53.124Z,11.53
2017-08-28T15:51:20.757Z,11.80
2017-08-28T15:53:48.279Z,11.83
2017-08-28T15:56:15.796Z,13.23
2017-08-28T15:58:43.352Z,13.80
2017-08-28T16:01:10.866Z,11.80
2017-08-28T16:03:38.399Z,11.63
2017-08-28T16:06:05.956Z,12.60
2017-08-28T16:08:33.499Z,12.43
2017-08-28T16:11:01.273Z,13.07
2017-08-28T16:13:28.879Z,12.80
2017-08-28T16:15:56.437Z,13.53
2017-08-28T16:18:24.008Z,11.83
2017-08-28T16:20:51.544Z,12.47
2017-08-28T16:23:19.076Z,13.33
2017-08-28T16:25:46.633Z,14.00
2017-08-28T16:28:14.167Z,14.47
2017-08-28T16:30:41.721Z,13.00
2017-08-28T16:33:09.249Z,13.60
2017-08-28T16:35:36.819Z,12.70
2017-08-28T16:38:04.335Z,12.30
2017-08-28T16:40:31.889Z,12.47
2017-08-28T16:42:59.416Z,13.50
2017-08-28T16:45:26.974Z,12.47
2017-08-28T16:47:54.493Z,14.20
2017-08-28T16:50:22.119Z,13.13
2017-08-28T16:52:49.678Z,14.07
2017-08-28T16:55:17.204Z,13.10
2017-08-28T16:57:44.747Z,13.83
2017-08-28T17:00:12.308Z,13.47
2017-08-28T17:02:40.067Z,13.70
2017-08-28T17:05:07.583Z,13.80
2017-08-28T17:07:35.191Z,13.93
2017-08-28T17:10:02.760Z,14.00
2017-08-28T17:12:30.275Z,13.77
2017-08-28T17:14:57.791Z,13.07
2017-08-28T17:17:25.388Z,13.13
2017-08-28T17:19:52.921Z,14.33
2017-08-28T17:22:20.475Z,13.90
2017-08-28T17:24:47.995Z,15.03
2017-08-28T17:27:15.552Z,14.30
2017-08-28T17:29:43.080Z,13.50
2017-08-28T17:32:10.624Z,13.83
2017-08-28T17:34:38.152Z,13.30
2017-08-28T17:37:05.753Z,14.03
2017-08-28T17:39:33.538Z,14.80
2017-08-28T17:42:01.120Z,14.30
2017-08-28T17:44:28.721Z,15.87
2017-08-28T17:46:56.329Z,15.60
2017-08-28T17:49:23.862Z,15.80
2017-08-28T17:51:51.384Z,15.33
2017-08-28T17:54:19.127Z,16.50
2017-08-28T17:56:46.673Z,16.10
2017-08-28T17:59:14.195Z,17.00
2017-08-28T18:01:41.755Z,16.33
2017-08-28T18:04:09.312Z,16.00
2017-08-28T18:06:36.888Z,16.93
2017-08-28T18:09:04.443Z,16.40
2017-08-28T18:11:31.962Z,16.97
2017-08-28T18:13:59.526Z,18.10
2017-08-28T18:16:27.056Z,17.80
2017-08-28T18:18:54.578Z,18.20
2017-08-28T18:21:22.174Z,16.10
2017-08-28T18:23:49.931Z,14.07
2017-08-28T18:26:17.522Z,14.70
2017-08-28T18:28:45.039Z,15.10
2017-08-28T18:31:12.596Z,14.97
2017-08-28T18:33:40.158Z,13.57
2017-08-28T18:36:07.680Z,14.33
2017-08-28T18:38:35.297Z,15.40
2017-08-28T18:41:02.814Z,15.40
2017-08-28T18:43:30.380Z,15.70
2017-08-28T18:45:57.904Z,16.20
2017-08-28T18:48:25.429Z,17.07
2017-08-28T18:50:52.983Z,16.00
2017-08-28T18:53:20.498Z,15.57
2017-08-28T18:55:48.060Z,16.90
2017-08-28T18:58:15.577Z,17.50
2017-08-28T19:00:43.092Z,17.40
2017-08-28T19:03:10.657Z,17.17
2017-08-28T19:05:38.176Z,17.40
2017-08-28T19:08:05.779Z,18.07
2017-08-28T19:10:33.332Z,18.37
2017-08-28T19:13:00.864Z,17.90
2017-08-28T19:15:28.439Z,20.03
2017-08-28T19:17:55.987Z,17.93
2017-08-28T19:20:23.512Z,18.80
2017-08-28T19:22:51.069Z,17.87
2017-08-28T19:25:18.596Z,19.20
2017-08-28T19:27:46.144Z,17.60
2017-08-28T19:30:13.676Z,19.20
2017-08-28T19:32:41.245Z,19.60
2017-08-28T19:35:08.760Z,18.20
2017-08-28T19:37:36.321Z,19.60
2017-08-28T19:40:03.876Z,22.83
2017-08-28T19:42:31.395Z,20.63
2017-08-28T19:44:59.081Z,21.30
2017-08-28T19:47:26.595Z,19.17
2017-08-28T19:49:54.107Z,21.30
2017-08-28T19:52:21.660Z,20.13
2017-08-28T19:54:49.290Z,21.13
2017-08-28T19:57:16.869Z,20.40
2017-08-28T19:59:44.391Z,20.60
2017-08-28T20:02:11.935Z,17.70
2017-08-28T20:04:39.485Z,18.87
2017-08-28T20:07:07.042Z,19.40
2017-08-28T20:09:34.608Z,19.70
2017-08-28T20:12:02.148Z,18.87
2017-08-28T20:14:29.781Z,18.80
2017-08-28T20:16:57.451Z,18.47
2017-08-28T20:19:24.968Z,17.07
2017-08-28T20:21:52.522Z,17.20
2017-08-28T20:24:20.055Z,17.40
2017-08-28T20:26:47.617Z,18.10
2017-08-28T20:29:15.137Z,17.40
2017-08-28T20:31:42.652Z,20.43
2017-08-28T20:34:10.259Z,18.77
2017-08-28T20:36:37.875Z,19.30
2017-08-28T20:39:05.391Z,21.57
2017-08-28T20:41:33.009Z,20.77
2017-08-28T20:44:00.553Z,19.00
2017-08-28T20:46:28.134Z,19.23
2017-08-28T20:48:55.700Z,18.43
2017-08-28T20:51:23.227Z,20.77
2017-08-28T20:53:50.884Z,19.27
2017-08-28T20:56:18.484Z,19.87
2017-08-28T20:58:46.122Z,19.80
2017-08-28T21:01:13.723Z,19.50
2017-08-28T21:03:41.251Z,21.23
2017-08-28T21:06:08.964Z,20.30
2017-08-28T21:08:36.624Z,19.10
2017-08-28T21:11:04.153Z,20.00
2017-08-28T21:13:31.717Z,20.23
2017-08-28T21:15:59.278Z,19.03
2017-08-28T21:18:26.818Z,19.43
2017-08-28T21:20:54.385Z,18.53
2017-08-28T21:23:21.913Z,20.17
2017-08-28T21:25:49.504Z,18.90
2017-08-28T21:28:17.101Z,20.73
2017-08-28T21:30:44.625Z,19.67
2017-08-28T21:33:12.321Z,19.63
2017-08-28T21:35:39.888Z,18.43
2017-08-28T21:38:07.419Z,20.67
2017-08-28T21:40:34.995Z,17.50
2017-08-28T21:43:02.524Z,17.67
2017-08-28T21:45:30.039Z,17.00
2017-08-28T21:47:57.594Z,16.90
2017-08-28T21:50:25.146Z,16.70
2017-08-28T21:52:52.670Z,15.63
2017-08-28T21:55:20.226Z,15.43
2017-08-28T21:57:47.784Z,15.70
2017-08-28T22:00:15.343Z,15.67
2017-08-28T22:02:42.863Z,15.27
2017-08-28T22:05:10.385Z,16.10
2017-08-28T22:07:37.945Z,16.37
2017-08-28T22:10:05.466Z,15.90
2017-08-28T22:12:33.059Z,16.13
2017-08-28T22:15:00.678Z,17.30
2017-08-28T22:17:28.263Z,15.60
2017-08-28T22:19:55.788Z,15.80
2017-08-28T22:22:23.314Z,14.17
2017-08-28T22:24:50.885Z,14.40
2017-08-28T22:27:18.432Z,15.07
2017-08-28T22:29:45.957Z,15.07
2017-08-28T22:32:13.516Z,16.40
2017-08-28T22:34:41.077Z,16.17
2017-08-28T22:37:08.683Z,15.60
2017-08-28T22:39:36.215Z,15.77
2017-08-28T22:42:03.788Z,14.60
2017-08-28T22:44:31.400Z,14.60
2017-08-28T22:46:58.924Z,15.10
2017-08-28T22:49:26.522Z,14.50
2017-08-28T22:51:54.107Z,15.20
2017-08-28T22:54:21.670Z,14.53
2017-08-28T22:56:49.193Z,14.50
2017-08-28T22:59:17.479Z,14.63
2017-08-28T23:01:45.048Z,13.40
2017-08-28T23:04:12.653Z,14.50
2017-08-28T23:06:40.376Z,14.57
2017-08-28T23:09:07.940Z,14.17
2017-08-28T23:11:35.513Z,14.60
2017-08-28T23:14:03.132Z,13.83
2017-08-28T23:16:30.647Z,14.63
2017-08-28T23:18:58.216Z,15.40
2017-08-28T23:21:25.865Z,13.73
2017-08-28T23:23:53.410Z,15.10
2017-08-28T23:26:20.968Z,15.10
2017-08-28T23:28:48.538Z,15.43
2017-08-28T23:31:16.165Z,15.77
2017-08-28T23:33:43.732Z,15.47
2017-08-28T23:36:12.019Z,14.50
2017-08-28T23:38:39.635Z,13.60
2017-08-28T23:41:07.170Z,13.90
2017-08-28T23:43:34.724Z,13.67
2017-08-28T23:46:02.285Z,13.97
2017-08-28T23:48:29.848Z,14.10
2017-08-28T23:50:57.436Z,14.73
2017-08-28T23:53:24.955Z,14.13
2017-08-28T23:55:52.589Z,14.00
2017-08-28T23:58:20.118Z,15.30
